sensor_id;sensor_type;location;lat;lon;timestamp;P1;durP1;ratioP1;P2;durP2;ratioP2
24159;SDS011;62385;41.594;23.808;2022-08-25T00:01:33;4.55;;;2.17;;
24159;SDS011;62385;41.594;23.808;2022-08-25T00:04:04;3.92;;;2.13;;
24159;SDS011;62385;41.594;23.808;2022-08-25T00:06:36;9.20;;;3.00;;
24159;SDS011;62385;41.594;23.808;2022-08-25T00:09:02;8.07;;;2.70;;
24159;SDS011;62385;41.594;23.808;2022-08-25T00:11:30;4.70;;;2.60;;
24159;SDS011;62385;41.594;23.808;2022-08-25T00:13:58;11.73;;;3.35;;
24159;SDS011;62385;41.594;23.808;2022-08-25T00:16:25;10.77;;;4.10;;
24159;SDS011;62385;41.594;23.808;2022-08-25T00:18:53;12.88;;;3.63;;
24159;SDS011;62385;41.594;23.808;2022-08-25T00:21:21;5.82;;;2.95;;
24159;SDS011;62385;41.594;23.808;2022-08-25T00:23:47;6.88;;;3.17;;
24159;SDS011;62385;41.594;23.808;2022-08-25T00:26:14;9.43;;;3.20;;
24159;SDS011;62385;41.594;23.808;2022-08-25T00:28:41;7.82;;;3.28;;
24159;SDS011;62385;41.594;23.808;2022-08-25T00:31:10;5.03;;;2.72;;
24159;SDS011;62385;41.594;23.808;2022-08-25T00:33:57;7.15;;;2.90;;
24159;SDS011;62385;41.594;23.808;2022-08-25T00:36:23;14.10;;;2.95;;
24159;SDS011;62385;41.594;23.808;2022-08-25T00:38:48;7.03;;;2.85;;
24159;SDS011;62385;41.594;23.808;2022-08-25T00:41:33;6.30;;;2.95;;
24159;SDS011;62385;41.594;23.808;2022-08-25T00:44:01;13.65;;;3.97;;
24159;SDS011;62385;41.594;23.808;2022-08-25T00:46:30;9.43;;;3.50;;
24159;SDS011;62385;41.594;23.808;2022-08-25T00:49:20;8.20;;;3.92;;
24159;SDS011;62385;41.594;23.808;2022-08-25T00:52:03;8.38;;;3.17;;
24159;SDS011;62385;41.594;23.808;2022-08-25T00:54:34;4.78;;;3.15;;
24159;SDS011;62385;41.594;23.808;2022-08-25T00:57:04;8.43;;;3.72;;
24159;SDS011;62385;41.594;23.808;2022-08-25T00:59:30;4.85;;;3.35;;
24159;SDS011;62385;41.594;23.808;2022-08-25T01:02:16;7.25;;;3.33;;
24159;SDS011;62385;41.594;23.808;2022-08-25T01:04:42;6.65;;;3.92;;
24159;SDS011;62385;41.594;23.808;2022-08-25T01:07:10;3.60;;;3.20;;
24159;SDS011;62385;41.594;23.808;2022-08-25T01:09:37;8.52;;;4.68;;
24159;SDS011;62385;41.594;23.808;2022-08-25T01:12:03;8.60;;;4.57;;
24159;SDS011;62385;41.594;23.808;2022-08-25T01:14:30;7.32;;;4.20;;
24159;SDS011;62385;41.594;23.808;2022-08-25T01:16:57;12.93;;;4.20;;
24159;SDS011;62385;41.594;23.808;2022-08-25T01:19:24;7.25;;;3.50;;
24159;SDS011;62385;41.594;23.808;2022-08-25T01:21:52;8.68;;;3.28;;
24159;SDS011;62385;41.594;23.808;2022-08-25T01:24:34;7.63;;;3.90;;
24159;SDS011;62385;41.594;23.808;2022-08-25T01:27:11;9.75;;;3.80;;
24159;SDS011;62385;41.594;23.808;2022-08-25T01:29:37;7.95;;;4.40;;
24159;SDS011;62385;41.594;23.808;2022-08-25T01:32:04;9.18;;;4.00;;
24159;SDS011;62385;41.594;23.808;2022-08-25T01:34:34;6.53;;;4.00;;
24159;SDS011;62385;41.594;23.808;2022-08-25T01:37:02;6.63;;;3.88;;
24159;SDS011;62385;41.594;23.808;2022-08-25T01:39:29;7.47;;;4.18;;
24159;SDS011;62385;41.594;23.808;2022-08-25T01:45:00;12.77;;;5.15;;
24159;SDS011;62385;41.594;23.808;2022-08-25T01:47:26;7.83;;;4.87;;
24159;SDS011;62385;41.594;23.808;2022-08-25T01:49:51;8.35;;;4.30;;
24159;SDS011;62385;41.594;23.808;2022-08-25T01:55:08;9.50;;;3.97;;
24159;SDS011;62385;41.594;23.808;2022-08-25T01:57:34;6.40;;;3.53;;
24159;SDS011;62385;41.594;23.808;2022-08-25T01:59:59;7.57;;;4.18;;
24159;SDS011;62385;41.594;23.808;2022-08-25T02:02:25;7.13;;;4.22;;
24159;SDS011;62385;41.594;23.808;2022-08-25T02:04:51;8.25;;;3.90;;
24159;SDS011;62385;41.594;23.808;2022-08-25T02:07:17;10.13;;;4.45;;
24159;SDS011;62385;41.594;23.808;2022-08-25T02:09:43;9.25;;;4.25;;
24159;SDS011;62385;41.594;23.808;2022-08-25T02:12:08;7.10;;;4.30;;
24159;SDS011;62385;41.594;23.808;2022-08-25T02:14:34;12.50;;;4.60;;
24159;SDS011;62385;41.594;23.808;2022-08-25T02:17:01;12.02;;;4.40;;
24159;SDS011;62385;41.594;23.808;2022-08-25T02:19:27;11.05;;;3.97;;
24159;SDS011;62385;41.594;23.808;2022-08-25T02:21:55;8.95;;;5.03;;
24159;SDS011;62385;41.594;23.808;2022-08-25T02:24:21;9.95;;;4.35;;
24159;SDS011;62385;41.594;23.808;2022-08-25T02:26:46;9.43;;;4.20;;
24159;SDS011;62385;41.594;23.808;2022-08-25T02:29:12;10.30;;;4.65;;
24159;SDS011;62385;41.594;23.808;2022-08-25T02:31:38;12.60;;;5.18;;
24159;SDS011;62385;41.594;23.808;2022-08-25T02:34:06;7.93;;;4.90;;
24159;SDS011;62385;41.594;23.808;2022-08-25T02:36:33;8.00;;;4.50;;
24159;SDS011;62385;41.594;23.808;2022-08-25T02:38:59;12.63;;;5.05;;
24159;SDS011;62385;41.594;23.808;2022-08-25T02:41:25;7.78;;;4.90;;
24159;SDS011;62385;41.594;23.808;2022-08-25T02:43:52;11.75;;;4.55;;
24159;SDS011;62385;41.594;23.808;2022-08-25T02:46:19;9.93;;;4.43;;
24159;SDS011;62385;41.594;23.808;2022-08-25T02:48:46;12.50;;;4.72;;
24159;SDS011;62385;41.594;23.808;2022-08-25T02:51:12;10.75;;;4.72;;
24159;SDS011;62385;41.594;23.808;2022-08-25T02:53:39;7.53;;;4.85;;
24159;SDS011;62385;41.594;23.808;2022-08-25T02:56:09;9.85;;;4.95;;
24159;SDS011;62385;41.594;23.808;2022-08-25T02:58:37;7.70;;;4.53;;
24159;SDS011;62385;41.594;23.808;2022-08-25T03:01:03;8.50;;;4.20;;
24159;SDS011;62385;41.594;23.808;2022-08-25T03:03:31;9.98;;;5.05;;
24159;SDS011;62385;41.594;23.808;2022-08-25T03:05:57;9.07;;;4.60;;
24159;SDS011;62385;41.594;23.808;2022-08-25T03:08:23;9.57;;;5.25;;
24159;SDS011;62385;41.594;23.808;2022-08-25T03:10:49;9.00;;;4.80;;
24159;SDS011;62385;41.594;23.808;2022-08-25T03:13:15;9.90;;;4.45;;
24159;SDS011;62385;41.594;23.808;2022-08-25T03:15:41;7.68;;;4.57;;
24159;SDS011;62385;41.594;23.808;2022-08-25T03:18:07;8.65;;;4.90;;
24159;SDS011;62385;41.594;23.808;2022-08-25T03:20:33;12.00;;;5.15;;
24159;SDS011;62385;41.594;23.808;2022-08-25T03:23:01;7.78;;;5.45;;
24159;SDS011;62385;41.594;23.808;2022-08-25T03:25:27;5.90;;;4.20;;
24159;SDS011;62385;41.594;23.808;2022-08-25T03:28:11;12.23;;;4.70;;
24159;SDS011;62385;41.594;23.808;2022-08-25T03:30:37;8.70;;;5.25;;
24159;SDS011;62385;41.594;23.808;2022-08-25T03:33:03;10.43;;;5.45;;
24159;SDS011;62385;41.594;23.808;2022-08-25T03:35:29;14.32;;;5.25;;
24159;SDS011;62385;41.594;23.808;2022-08-25T03:37:55;8.52;;;4.65;;
24159;SDS011;62385;41.594;23.808;2022-08-25T03:40:21;10.00;;;4.85;;
24159;SDS011;62385;41.594;23.808;2022-08-25T03:42:47;9.32;;;4.05;;
24159;SDS011;62385;41.594;23.808;2022-08-25T03:45:14;8.55;;;4.28;;
24159;SDS011;62385;41.594;23.808;2022-08-25T03:47:40;9.50;;;4.70;;
24159;SDS011;62385;41.594;23.808;2022-08-25T03:50:06;11.18;;;6.07;;
24159;SDS011;62385;41.594;23.808;2022-08-25T03:52:34;31.92;;;27.75;;
24159;SDS011;62385;41.594;23.808;2022-08-25T03:55:01;73.97;;;52.50;;
24159;SDS011;62385;41.594;23.808;2022-08-25T03:57:30;9.30;;;6.22;;
24159;SDS011;62385;41.594;23.808;2022-08-25T03:59:56;10.65;;;4.90;;
24159;SDS011;62385;41.594;23.808;2022-08-25T04:02:22;10.02;;;5.15;;
24159;SDS011;62385;41.594;23.808;2022-08-25T04:04:47;13.38;;;7.97;;
24159;SDS011;62385;41.594;23.808;2022-08-25T04:07:14;10.57;;;4.80;;
24159;SDS011;62385;41.594;23.808;2022-08-25T04:09:40;7.30;;;3.67;;
24159;SDS011;62385;41.594;23.808;2022-08-25T04:12:06;8.60;;;3.20;;
24159;SDS011;62385;41.594;23.808;2022-08-25T04:14:32;6.93;;;3.03;;
24159;SDS011;62385;41.594;23.808;2022-08-25T04:17:16;5.80;;;2.88;;
24159;SDS011;62385;41.594;23.808;2022-08-25T04:19:42;6.63;;;3.47;;
24159;SDS011;62385;41.594;23.808;2022-08-25T04:22:08;6.10;;;2.60;;
24159;SDS011;62385;41.594;23.808;2022-08-25T04:24:33;4.70;;;2.17;;
24159;SDS011;62385;41.594;23.808;2022-08-25T04:26:59;7.53;;;2.72;;
24159;SDS011;62385;41.594;23.808;2022-08-25T04:29:26;5.65;;;2.88;;
24159;SDS011;62385;41.594;23.808;2022-08-25T04:31:52;6.13;;;2.92;;
24159;SDS011;62385;41.594;23.808;2022-08-25T04:34:20;7.50;;;3.50;;
24159;SDS011;62385;41.594;23.808;2022-08-25T04:36:47;6.55;;;4.00;;
24159;SDS011;62385;41.594;23.808;2022-08-25T04:39:16;7.55;;;3.67;;
24159;SDS011;62385;41.594;23.808;2022-08-25T04:41:44;8.10;;;4.40;;
24159;SDS011;62385;41.594;23.808;2022-08-25T04:44:11;10.65;;;6.25;;
24159;SDS011;62385;41.594;23.808;2022-08-25T04:46:37;15.02;;;9.07;;
24159;SDS011;62385;41.594;23.808;2022-08-25T04:49:03;8.85;;;4.25;;
24159;SDS011;62385;41.594;23.808;2022-08-25T04:51:35;5.50;;;3.88;;
24159;SDS011;62385;41.594;23.808;2022-08-25T04:54:06;4.95;;;3.53;;
24159;SDS011;62385;41.594;23.808;2022-08-25T04:56:35;9.75;;;3.80;;
24159;SDS011;62385;41.594;23.808;2022-08-25T04:59:02;7.63;;;3.53;;
24159;SDS011;62385;41.594;23.808;2022-08-25T05:01:29;6.32;;;2.95;;
24159;SDS011;62385;41.594;23.808;2022-08-25T05:03:57;4.53;;;2.83;;
24159;SDS011;62385;41.594;23.808;2022-08-25T05:06:24;9.77;;;3.38;;
24159;SDS011;62385;41.594;23.808;2022-08-25T05:08:50;6.95;;;3.70;;
24159;SDS011;62385;41.594;23.808;2022-08-25T05:11:17;8.35;;;3.38;;
24159;SDS011;62385;41.594;23.808;2022-08-25T05:13:44;7.60;;;3.83;;
24159;SDS011;62385;41.594;23.808;2022-08-25T05:16:11;4.75;;;2.88;;
24159;SDS011;62385;41.594;23.808;2022-08-25T05:18:36;6.30;;;3.85;;
24159;SDS011;62385;41.594;23.808;2022-08-25T05:21:13;5.72;;;3.92;;
24159;SDS011;62385;41.594;23.808;2022-08-25T05:23:40;4.97;;;3.75;;
24159;SDS011;62385;41.594;23.808;2022-08-25T05:26:07;5.78;;;3.22;;
24159;SDS011;62385;41.594;23.808;2022-08-25T05:28:36;4.43;;;2.80;;
24159;SDS011;62385;41.594;23.808;2022-08-25T05:31:05;13.13;;;3.15;;
24159;SDS011;62385;41.594;23.808;2022-08-25T05:33:33;6.25;;;3.63;;
24159;SDS011;62385;41.594;23.808;2022-08-25T05:35:59;6.20;;;2.65;;
24159;SDS011;62385;41.594;23.808;2022-08-25T05:38:25;4.43;;;2.67;;
24159;SDS011;62385;41.594;23.808;2022-08-25T05:41:01;7.03;;;3.28;;
24159;SDS011;62385;41.594;23.808;2022-08-25T05:43:29;6.60;;;2.88;;
24159;SDS011;62385;41.594;23.808;2022-08-25T05:45:56;5.13;;;2.38;;
24159;SDS011;62385;41.594;23.808;2022-08-25T05:48:22;7.18;;;2.67;;
24159;SDS011;62385;41.594;23.808;2022-08-25T05:50:50;5.03;;;2.45;;
24159;SDS011;62385;41.594;23.808;2022-08-25T05:53:17;5.95;;;3.13;;
24159;SDS011;62385;41.594;23.808;2022-08-25T05:55:44;6.18;;;2.60;;
24159;SDS011;62385;41.594;23.808;2022-08-25T05:58:09;3.90;;;2.45;;
24159;SDS011;62385;41.594;23.808;2022-08-25T06:00:36;3.83;;;2.17;;
24159;SDS011;62385;41.594;23.808;2022-08-25T06:03:03;9.68;;;2.72;;
24159;SDS011;62385;41.594;23.808;2022-08-25T06:05:29;6.30;;;2.80;;
24159;SDS011;62385;41.594;23.808;2022-08-25T06:07:57;6.72;;;2.40;;
24159;SDS011;62385;41.594;23.808;2022-08-25T06:10:23;7.75;;;2.47;;
24159;SDS011;62385;41.594;23.808;2022-08-25T06:12:52;4.35;;;2.10;;
24159;SDS011;62385;41.594;23.808;2022-08-25T06:15:19;8.73;;;2.42;;
24159;SDS011;62385;41.594;23.808;2022-08-25T06:17:46;6.30;;;2.53;;
24159;SDS011;62385;41.594;23.808;2022-08-25T06:20:14;7.07;;;2.00;;
24159;SDS011;62385;41.594;23.808;2022-08-25T06:22:42;5.60;;;2.47;;
24159;SDS011;62385;41.594;23.808;2022-08-25T06:25:09;4.18;;;2.22;;
24159;SDS011;62385;41.594;23.808;2022-08-25T06:27:36;6.15;;;2.70;;
24159;SDS011;62385;41.594;23.808;2022-08-25T06:30:03;8.25;;;2.50;;
24159;SDS011;62385;41.594;23.808;2022-08-25T06:32:32;4.40;;;2.10;;
24159;SDS011;62385;41.594;23.808;2022-08-25T06:35:00;3.00;;;2.10;;
24159;SDS011;62385;41.594;23.808;2022-08-25T06:37:26;4.80;;;2.10;;
24159;SDS011;62385;41.594;23.808;2022-08-25T06:39:52;7.15;;;2.15;;
24159;SDS011;62385;41.594;23.808;2022-08-25T06:42:36;4.32;;;2.40;;
24159;SDS011;62385;41.594;23.808;2022-08-25T06:45:02;4.55;;;1.88;;
24159;SDS011;62385;41.594;23.808;2022-08-25T06:47:28;5.63;;;2.20;;
24159;SDS011;62385;41.594;23.808;2022-08-25T06:49:54;6.72;;;2.15;;
24159;SDS011;62385;41.594;23.808;2022-08-25T06:52:19;7.88;;;2.58;;
24159;SDS011;62385;41.594;23.808;2022-08-25T06:54:45;4.28;;;2.53;;
24159;SDS011;62385;41.594;23.808;2022-08-25T06:57:11;7.93;;;2.92;;
24159;SDS011;62385;41.594;23.808;2022-08-25T06:59:36;4.57;;;2.47;;
24159;SDS011;62385;41.594;23.808;2022-08-25T07:02:03;9.35;;;2.80;;
24159;SDS011;62385;41.594;23.808;2022-08-25T07:04:29;3.97;;;2.85;;
24159;SDS011;62385;41.594;23.808;2022-08-25T07:06:56;6.68;;;3.03;;
24159;SDS011;62385;41.594;23.808;2022-08-25T07:09:21;8.27;;;2.72;;
24159;SDS011;62385;41.594;23.808;2022-08-25T07:11:47;7.88;;;2.65;;
24159;SDS011;62385;41.594;23.808;2022-08-25T07:14:14;6.82;;;2.38;;
24159;SDS011;62385;41.594;23.808;2022-08-25T07:16:42;8.50;;;3.13;;
24159;SDS011;62385;41.594;23.808;2022-08-25T07:19:09;8.13;;;3.42;;
24159;SDS011;62385;41.594;23.808;2022-08-25T07:21:36;11.65;;;3.25;;
24159;SDS011;62385;41.594;23.808;2022-08-25T07:24:05;6.32;;;3.20;;
24159;SDS011;62385;41.594;23.808;2022-08-25T07:26:35;5.40;;;3.03;;
24159;SDS011;62385;41.594;23.808;2022-08-25T07:29:03;5.85;;;3.17;;
24159;SDS011;62385;41.594;23.808;2022-08-25T07:31:49;7.57;;;3.17;;
24159;SDS011;62385;41.594;23.808;2022-08-25T07:34:15;6.63;;;3.05;;
24159;SDS011;62385;41.594;23.808;2022-08-25T07:37:00;9.70;;;4.47;;
24159;SDS011;62385;41.594;23.808;2022-08-25T07:39:28;11.68;;;4.03;;
24159;SDS011;62385;41.594;23.808;2022-08-25T07:41:55;18.42;;;4.57;;
24159;SDS011;62385;41.594;23.808;2022-08-25T07:44:21;15.65;;;4.55;;
24159;SDS011;62385;41.594;23.808;2022-08-25T07:46:49;34.28;;;3.67;;
24159;SDS011;62385;41.594;23.808;2022-08-25T07:49:15;11.90;;;3.70;;
24159;SDS011;62385;41.594;23.808;2022-08-25T07:51:41;19.50;;;4.78;;
24159;SDS011;62385;41.594;23.808;2022-08-25T07:54:07;15.48;;;4.93;;
24159;SDS011;62385;41.594;23.808;2022-08-25T07:56:51;17.90;;;3.67;;
24159;SDS011;62385;41.594;23.808;2022-08-25T07:59:18;16.97;;;3.93;;
24159;SDS011;62385;41.594;23.808;2022-08-25T08:01:43;20.35;;;4.18;;
24159;SDS011;62385;41.594;23.808;2022-08-25T08:04:09;13.75;;;3.20;;
24159;SDS011;62385;41.594;23.808;2022-08-25T08:06:35;9.65;;;3.20;;
24159;SDS011;62385;41.594;23.808;2022-08-25T08:09:01;12.98;;;3.53;;
24159;SDS011;62385;41.594;23.808;2022-08-25T08:11:31;13.30;;;3.70;;
24159;SDS011;62385;41.594;23.808;2022-08-25T08:14:00;16.45;;;3.53;;
24159;SDS011;62385;41.594;23.808;2022-08-25T08:16:26;13.80;;;4.53;;
24159;SDS011;62385;41.594;23.808;2022-08-25T08:18:54;19.63;;;5.15;;
24159;SDS011;62385;41.594;23.808;2022-08-25T08:21:21;20.02;;;5.10;;
24159;SDS011;62385;41.594;23.808;2022-08-25T08:23:50;21.13;;;5.00;;
24159;SDS011;62385;41.594;23.808;2022-08-25T08:26:17;11.82;;;4.65;;
24159;SDS011;62385;41.594;23.808;2022-08-25T08:28:43;21.33;;;5.15;;
24159;SDS011;62385;41.594;23.808;2022-08-25T08:31:09;21.00;;;4.53;;
24159;SDS011;62385;41.594;23.808;2022-08-25T08:33:36;29.58;;;5.10;;
24159;SDS011;62385;41.594;23.808;2022-08-25T08:36:04;19.48;;;4.85;;
24159;SDS011;62385;41.594;23.808;2022-08-25T08:38:33;20.30;;;5.72;;
24159;SDS011;62385;41.594;23.808;2022-08-25T08:56:13;29.40;;;5.80;;
24159;SDS011;62385;41.594;23.808;2022-08-25T09:01:30;24.05;;;5.60;;
24159;SDS011;62385;41.594;23.808;2022-08-25T09:06:54;25.77;;;6.70;;
24159;SDS011;62385;41.594;23.808;2022-08-25T09:09:24;33.37;;;7.37;;
24159;SDS011;62385;41.594;23.808;2022-08-25T09:11:56;21.42;;;5.80;;
24159;SDS011;62385;41.594;23.808;2022-08-25T09:19:44;32.03;;;6.97;;
24159;SDS011;62385;41.594;23.808;2022-08-25T09:22:43;25.85;;;6.50;;
24159;SDS011;62385;41.594;23.808;2022-08-25T09:25:31;39.58;;;6.20;;
24159;SDS011;62385;41.594;23.808;2022-08-25T09:30:31;26.40;;;6.07;;
24159;SDS011;62385;41.594;23.808;2022-08-25T09:33:04;28.27;;;7.00;;
24159;SDS011;62385;41.594;23.808;2022-08-25T09:35:32;33.30;;;6.78;;
24159;SDS011;62385;41.594;23.808;2022-08-25T09:40:27;28.23;;;6.00;;
24159;SDS011;62385;41.594;23.808;2022-08-25T09:42:55;21.42;;;5.55;;
24159;SDS011;62385;41.594;23.808;2022-08-25T09:45:30;26.13;;;6.90;;
24159;SDS011;62385;41.594;23.808;2022-08-25T09:47:59;31.80;;;7.15;;
24159;SDS011;62385;41.594;23.808;2022-08-25T09:50:25;31.58;;;6.90;;
24159;SDS011;62385;41.594;23.808;2022-08-25T09:52:58;30.98;;;6.25;;
24159;SDS011;62385;41.594;23.808;2022-08-25T09:55:37;25.98;;;6.72;;
24159;SDS011;62385;41.594;23.808;2022-08-25T09:58:12;26.33;;;6.32;;
24159;SDS011;62385;41.594;23.808;2022-08-25T10:01:12;31.73;;;7.00;;
24159;SDS011;62385;41.594;23.808;2022-08-25T10:06:32;32.83;;;6.88;;
24159;SDS011;62385;41.594;23.808;2022-08-25T10:09:03;27.38;;;6.45;;
24159;SDS011;62385;41.594;23.808;2022-08-25T10:11:41;30.52;;;6.75;;
24159;SDS011;62385;41.594;23.808;2022-08-25T10:16:47;30.90;;;6.72;;
24159;SDS011;62385;41.594;23.808;2022-08-25T10:19:25;30.35;;;6.07;;
24159;SDS011;62385;41.594;23.808;2022-08-25T10:22:06;32.97;;;7.27;;
24159;SDS011;62385;41.594;23.808;2022-08-25T10:24:32;23.17;;;6.07;;
24159;SDS011;62385;41.594;23.808;2022-08-25T10:30:06;27.98;;;6.28;;
24159;SDS011;62385;41.594;23.808;2022-08-25T10:35:40;33.78;;;6.97;;
24159;SDS011;62385;41.594;23.808;2022-08-25T10:38:29;33.77;;;6.37;;
24159;SDS011;62385;41.594;23.808;2022-08-25T10:44:12;35.65;;;5.93;;
24159;SDS011;62385;41.594;23.808;2022-08-25T10:49:39;33.87;;;7.00;;
24159;SDS011;62385;41.594;23.808;2022-08-25T10:52:15;35.23;;;6.47;;
24159;SDS011;62385;41.594;23.808;2022-08-25T11:00:14;36.03;;;7.22;;
24159;SDS011;62385;41.594;23.808;2022-08-25T11:03:00;30.42;;;5.90;;
24159;SDS011;62385;41.594;23.808;2022-08-25T11:10:41;27.23;;;6.40;;
24159;SDS011;62385;41.594;23.808;2022-08-25T11:13:21;28.27;;;6.32;;
24159;SDS011;62385;41.594;23.808;2022-08-25T11:15:53;25.30;;;5.95;;
24159;SDS011;62385;41.594;23.808;2022-08-25T11:18:24;31.52;;;6.53;;
24159;SDS011;62385;41.594;23.808;2022-08-25T11:21:01;22.75;;;6.10;;
24159;SDS011;62385;41.594;23.808;2022-08-25T11:23:49;32.85;;;6.13;;
24159;SDS011;62385;41.594;23.808;2022-08-25T11:26:26;30.67;;;6.25;;
24159;SDS011;62385;41.594;23.808;2022-08-25T11:29:00;21.80;;;6.18;;
24159;SDS011;62385;41.594;23.808;2022-08-25T11:31:52;23.20;;;5.90;;
24159;SDS011;62385;41.594;23.808;2022-08-25T11:34:18;29.92;;;6.28;;
24159;SDS011;62385;41.594;23.808;2022-08-25T11:36:53;23.35;;;6.25;;
24159;SDS011;62385;41.594;23.808;2022-08-25T11:42:19;27.67;;;5.93;;
24159;SDS011;62385;41.594;23.808;2022-08-25T11:50:55;26.90;;;6.57;;
24159;SDS011;62385;41.594;23.808;2022-08-25T11:53:38;31.38;;;6.85;;
24159;SDS011;62385;41.594;23.808;2022-08-25T11:56:07;37.78;;;5.97;;
24159;SDS011;62385;41.594;23.808;2022-08-25T11:58:41;24.67;;;6.32;;
24159;SDS011;62385;41.594;23.808;2022-08-25T12:09:29;28.00;;;5.78;;
24159;SDS011;62385;41.594;23.808;2022-08-25T12:11:55;24.65;;;6.00;;
24159;SDS011;62385;41.594;23.808;2022-08-25T12:25:13;24.15;;;5.65;;
24159;SDS011;62385;41.594;23.808;2022-08-25T12:27:40;17.92;;;5.07;;
24159;SDS011;62385;41.594;23.808;2022-08-25T12:30:25;23.70;;;5.72;;
24159;SDS011;62385;41.594;23.808;2022-08-25T12:35:22;24.80;;;5.13;;
24159;SDS011;62385;41.594;23.808;2022-08-25T12:37:59;24.10;;;5.05;;
24159;SDS011;62385;41.594;23.808;2022-08-25T12:40:37;21.95;;;5.18;;
24159;SDS011;62385;41.594;23.808;2022-08-25T12:43:45;32.67;;;4.93;;
24159;SDS011;62385;41.594;23.808;2022-08-25T12:48:58;20.52;;;5.03;;
24159;SDS011;62385;41.594;23.808;2022-08-25T12:54:11;28.70;;;5.35;;
24159;SDS011;62385;41.594;23.808;2022-08-25T12:56:52;27.77;;;6.13;;
24159;SDS011;62385;41.594;23.808;2022-08-25T12:59:23;26.17;;;5.35;;
24159;SDS011;62385;41.594;23.808;2022-08-25T13:10:39;27.37;;;5.20;;
24159;SDS011;62385;41.594;23.808;2022-08-25T13:16:22;30.90;;;5.82;;
24159;SDS011;62385;41.594;23.808;2022-08-25T13:18:52;25.20;;;5.75;;
24159;SDS011;62385;41.594;23.808;2022-08-25T13:21:26;27.35;;;5.68;;
24159;SDS011;62385;41.594;23.808;2022-08-25T13:23:55;26.67;;;5.75;;
24159;SDS011;62385;41.594;23.808;2022-08-25T13:26:28;30.83;;;6.00;;
24159;SDS011;62385;41.594;23.808;2022-08-25T13:29:03;29.05;;;5.57;;
24159;SDS011;62385;41.594;23.808;2022-08-25T13:31:49;23.25;;;4.95;;
24159;SDS011;62385;41.594;23.808;2022-08-25T13:34:20;24.98;;;5.07;;
24159;SDS011;62385;41.594;23.808;2022-08-25T13:37:18;28.08;;;6.28;;
24159;SDS011;62385;41.594;23.808;2022-08-25T13:40:07;33.15;;;6.63;;
24159;SDS011;62385;41.594;23.808;2022-08-25T13:42:46;26.70;;;5.15;;
24159;SDS011;62385;41.594;23.808;2022-08-25T13:45:17;31.38;;;5.43;;
24159;SDS011;62385;41.594;23.808;2022-08-25T13:47:45;23.23;;;4.93;;
24159;SDS011;62385;41.594;23.808;2022-08-25T13:50:16;31.40;;;4.78;;
24159;SDS011;62385;41.594;23.808;2022-08-25T13:52:46;23.50;;;4.35;;
24159;SDS011;62385;41.594;23.808;2022-08-25T13:55:22;25.10;;;4.90;;
24159;SDS011;62385;41.594;23.808;2022-08-25T13:58:14;26.90;;;4.20;;
24159;SDS011;62385;41.594;23.808;2022-08-25T14:00:43;37.33;;;5.80;;
24159;SDS011;62385;41.594;23.808;2022-08-25T14:03:33;25.05;;;4.55;;
24159;SDS011;62385;41.594;23.808;2022-08-25T14:06:44;24.35;;;5.00;;
24159;SDS011;62385;41.594;23.808;2022-08-25T14:13:59;29.10;;;5.00;;
24159;SDS011;62385;41.594;23.808;2022-08-25T14:16:26;33.97;;;5.55;;
24159;SDS011;62385;41.594;23.808;2022-08-25T14:18:52;29.48;;;4.60;;
24159;SDS011;62385;41.594;23.808;2022-08-25T14:21:24;25.83;;;4.50;;
24159;SDS011;62385;41.594;23.808;2022-08-25T14:23:53;28.70;;;5.90;;
24159;SDS011;62385;41.594;23.808;2022-08-25T14:26:20;19.65;;;5.22;;
24159;SDS011;62385;41.594;23.808;2022-08-25T14:28:47;19.20;;;5.07;;
24159;SDS011;62385;41.594;23.808;2022-08-25T14:31:16;27.35;;;4.72;;
24159;SDS011;62385;41.594;23.808;2022-08-25T14:33:53;18.25;;;4.10;;
24159;SDS011;62385;41.594;23.808;2022-08-25T14:36:23;25.25;;;5.05;;
24159;SDS011;62385;41.594;23.808;2022-08-25T14:38:49;28.48;;;5.00;;
24159;SDS011;62385;41.594;23.808;2022-08-25T14:41:34;31.70;;;5.45;;
24159;SDS011;62385;41.594;23.808;2022-08-25T14:44:01;16.95;;;4.25;;
24159;SDS011;62385;41.594;23.808;2022-08-25T14:46:29;25.10;;;5.72;;
24159;SDS011;62385;41.594;23.808;2022-08-25T14:48:59;20.95;;;4.97;;
24159;SDS011;62385;41.594;23.808;2022-08-25T14:51:26;31.45;;;5.10;;
24159;SDS011;62385;41.594;23.808;2022-08-25T14:53:54;25.75;;;4.93;;
24159;SDS011;62385;41.594;23.808;2022-08-25T14:56:23;25.67;;;5.05;;
24159;SDS011;62385;41.594;23.808;2022-08-25T14:58:49;17.85;;;4.20;;
24159;SDS011;62385;41.594;23.808;2022-08-25T15:01:15;24.63;;;4.57;;
24159;SDS011;62385;41.594;23.808;2022-08-25T15:03:42;29.27;;;5.68;;
24159;SDS011;62385;41.594;23.808;2022-08-25T15:06:11;12.30;;;3.53;;
24159;SDS011;62385;41.594;23.808;2022-08-25T15:08:39;20.13;;;4.55;;
24159;SDS011;62385;41.594;23.808;2022-08-25T15:11:23;21.63;;;4.65;;
24159;SDS011;62385;41.594;23.808;2022-08-25T15:13:49;26.35;;;5.45;;
24159;SDS011;62385;41.594;23.808;2022-08-25T15:16:20;20.20;;;3.95;;
24159;SDS011;62385;41.594;23.808;2022-08-25T15:18:48;22.55;;;5.05;;
24159;SDS011;62385;41.594;23.808;2022-08-25T15:21:14;24.20;;;4.97;;
24159;SDS011;62385;41.594;23.808;2022-08-25T15:23:40;33.22;;;4.10;;
24159;SDS011;62385;41.594;23.808;2022-08-25T15:26:07;13.18;;;4.05;;
24159;SDS011;62385;41.594;23.808;2022-08-25T15:28:41;22.50;;;4.65;;
24159;SDS011;62385;41.594;23.808;2022-08-25T15:31:10;27.20;;;5.43;;
24159;SDS011;62385;41.594;23.808;2022-08-25T15:33:37;26.95;;;4.35;;
24159;SDS011;62385;41.594;23.808;2022-08-25T15:36:04;28.25;;;6.25;;
24159;SDS011;62385;41.594;23.808;2022-08-25T15:38:36;22.85;;;6.07;;
24159;SDS011;62385;41.594;23.808;2022-08-25T15:41:02;20.90;;;4.88;;
24159;SDS011;62385;41.594;23.808;2022-08-25T15:43:29;27.48;;;6.38;;
24159;SDS011;62385;41.594;23.808;2022-08-25T15:45:54;28.55;;;5.15;;
24159;SDS011;62385;41.594;23.808;2022-08-25T15:48:38;29.45;;;5.03;;
24159;SDS011;62385;41.594;23.808;2022-08-25T15:51:04;18.98;;;4.30;;
24159;SDS011;62385;41.594;23.808;2022-08-25T15:53:32;18.73;;;3.63;;
24159;SDS011;62385;41.594;23.808;2022-08-25T15:55:58;15.07;;;3.78;;
24159;SDS011;62385;41.594;23.808;2022-08-25T15:58:24;22.45;;;4.40;;
24159;SDS011;62385;41.594;23.808;2022-08-25T16:00:50;22.85;;;4.50;;
24159;SDS011;62385;41.594;23.808;2022-08-25T16:03:16;17.85;;;4.85;;
24159;SDS011;62385;41.594;23.808;2022-08-25T16:05:44;16.15;;;5.57;;
24159;SDS011;62385;41.594;23.808;2022-08-25T16:08:10;17.75;;;5.90;;
24159;SDS011;62385;41.594;23.808;2022-08-25T16:10:37;18.23;;;4.05;;
24159;SDS011;62385;41.594;23.808;2022-08-25T16:13:05;20.70;;;4.85;;
24159;SDS011;62385;41.594;23.808;2022-08-25T16:15:32;14.20;;;3.85;;
24159;SDS011;62385;41.594;23.808;2022-08-25T16:17:58;16.02;;;4.03;;
24159;SDS011;62385;41.594;23.808;2022-08-25T16:20:25;20.65;;;4.68;;
24159;SDS011;62385;41.594;23.808;2022-08-25T16:22:51;20.98;;;3.95;;
24159;SDS011;62385;41.594;23.808;2022-08-25T16:25:17;18.13;;;4.47;;
24159;SDS011;62385;41.594;23.808;2022-08-25T16:27:43;19.15;;;4.03;;
24159;SDS011;62385;41.594;23.808;2022-08-25T16:30:09;30.10;;;4.35;;
24159;SDS011;62385;41.594;23.808;2022-08-25T16:32:36;18.70;;;4.03;;
24159;SDS011;62385;41.594;23.808;2022-08-25T16:35:04;22.23;;;4.32;;
24159;SDS011;62385;41.594;23.808;2022-08-25T16:37:31;26.33;;;7.13;;
24159;SDS011;62385;41.594;23.808;2022-08-25T16:39:58;71.95;;;31.65;;